North Platte, Nebraska
Current Conditions -  °F | °C
As of 3:53 PM on Friday 28 Nov 2014 (Local Time) from KLBF Reporting Station
Clear Clear  
Wind Chill: 19°   Ceiling: Unl
Heat Index: 19°   Visibility: 10mi
Dew Point: -7°   Wind: 9mph
Humidity: 17%   Direction: 260°W
Pressure: 29.69"   Gusts: NA
Location:  41.14°N, 100.76°W
Report Text: KLBF 282153Z AUTO 26008KT 10SM CLR 19/M07 A2969 RMK AO2 SLP061 T01891072
Loading
Personal Weather Stations






























Interactive Weather Map New forecast layout! Learn more

10-Day Weather Forecast

Advertisements
Track Severe Weather on mobile